Time;durP1;ratioP1;P1;durP2;ratioP2;P2;SDS_P1;SDS_P2;PMS_P1;PMS_P2;Temp;Humidity;BMP_temperature;BMP_pressure;BME280_temperature;BME280_humidity;BME280_pressure;Samples;Min_cycle;Max_cycle;Signal;HPM_P1;HPM_P2
2023/09/17 00:02:52;;;;;;;8.00;5.38;;;;;;;21.51;71.35;100060.81;10425399;28;20068;-60
2023/09/17 00:07:54;;;;;;;6.30;5.03;;;;;;;21.43;71.34;100059.34;10421433;28;20510;-59
2023/09/17 00:12:56;;;;;;;9.18;5.10;;;;;;;21.42;71.62;100063.13;10423583;28;20057;-60
2023/09/17 00:17:57;;;;;;;7.25;5.25;;;;;;;21.43;71.52;100063.97;10420051;28;20064;-60
2023/09/17 00:23:01;;;;;;;7.53;5.43;;;;;;;21.38;71.41;100071.00;10418282;28;20052;-59
2023/09/17 00:28:03;;;;;;;10.25;5.43;;;;;;;21.22;71.75;100069.16;10422946;28;20046;-61
2023/09/17 00:33:04;;;;;;;7.30;5.30;;;;;;;21.25;71.39;100065.09;10425920;28;20056;-60
2023/09/17 00:38:06;;;;;;;9.45;4.07;;;;;;;21.27;71.38;100069.25;10417592;28;20048;-60
2023/09/17 00:43:08;;;;;;;10.00;5.72;;;;;;;21.23;71.58;100061.78;10410609;28;20389;-59
2023/09/17 00:48:11;;;;;;;14.07;5.85;;;;;;;21.17;71.28;100069.94;10421940;28;20410;-61
2023/09/17 00:53:14;;;;;;;6.78;5.38;;;;;;;21.11;71.70;100070.94;10417939;28;20075;-60
2023/09/17 00:58:15;;;;;;;7.75;5.13;;;;;;;21.08;71.25;100068.72;10422037;28;20044;-59
2023/09/17 01:03:17;;;;;;;5.70;4.35;;;;;;;21.06;71.63;100070.06;10421103;28;20148;-60
2023/09/17 01:08:20;;;;;;;6.70;5.00;;;;;;;21.01;71.21;100065.34;10422930;28;20102;-60
2023/09/17 01:13:23;;;;;;;5.68;4.63;;;;;;;20.93;71.33;100063.88;10421558;28;20053;-60
2023/09/17 01:18:27;;;;;;;6.03;4.78;;;;;;;20.87;71.44;100064.03;10417583;28;20053;-60
2023/09/17 01:23:36;;;;;;;9.38;5.32;;;;;;;20.81;71.61;100057.66;10420635;28;20097;-59
2023/09/17 01:28:38;;;;;;;5.88;4.63;;;;;;;20.77;71.42;100056.53;10428588;28;20499;-61
2023/09/17 01:33:40;;;;;;;8.10;5.25;;;;;;;20.69;71.39;100054.22;10425966;28;20487;-60
2023/09/17 01:38:48;;;;;;;7.70;5.32;;;;;;;20.59;71.71;100054.88;10435153;28;20073;-60
2023/09/17 01:43:49;;;;;;;8.65;5.18;;;;;;;20.58;71.73;100054.03;10430824;28;20136;-61
2023/09/17 01:48:53;;;;;;;12.15;5.47;;;;;;;20.55;72.04;100043.59;10425758;28;20582;-59
2023/09/17 01:53:54;;;;;;;7.05;5.00;;;;;;;20.47;72.02;100059.59;10425623;28;20053;-59
2023/09/17 01:58:55;;;;;;;7.20;4.53;;;;;;;20.29;72.73;100066.13;10410880;28;20063;-60
2023/09/17 02:03:59;;;;;;;6.72;4.20;;;;;;;20.18;73.12;100073.28;10408936;28;20403;-60
2023/09/17 02:09:04;;;;;;;5.80;5.00;;;;;;;20.27;72.96;100054.63;10430583;28;20495;-59
2023/09/17 02:14:06;;;;;;;9.75;4.53;;;;;;;20.34;72.43;100056.13;10422156;28;20133;-57
2023/09/17 02:19:08;;;;;;;5.53;4.15;;;;;;;20.37;72.19;100060.25;10427733;28;20408;-59
2023/09/17 02:24:10;;;;;;;5.47;4.05;;;;;;;20.43;72.05;100063.88;10420970;28;20037;-59
2023/09/17 02:29:12;;;;;;;8.63;4.45;;;;;;;20.47;71.88;100057.66;10431379;28;20064;-59
2023/09/17 02:34:13;;;;;;;7.18;4.22;;;;;;;20.46;71.72;100063.38;10424049;28;20131;-58
2023/09/17 02:39:15;;;;;;;5.57;4.32;;;;;;;20.36;72.48;100064.06;10427603;28;20061;-58
2023/09/17 02:44:16;;;;;;;7.10;5.22;;;;;;;20.38;72.21;100057.28;10426177;28;20049;-57
2023/09/17 02:49:21;;;;;;;8.02;4.38;;;;;;;20.44;71.95;100050.00;10420765;28;20064;-59
2023/09/17 02:54:23;;;;;;;7.40;4.00;;;;;;;20.39;71.75;100053.44;10405730;28;20063;-59
2023/09/17 02:59:24;;;;;;;6.10;3.92;;;;;;;20.31;72.04;100058.50;10428250;28;20107;-59
2023/09/17 03:04:27;;;;;;;6.25;4.13;;;;;;;20.20;72.26;100063.81;10419795;28;20049;-58
2023/09/17 03:09:29;;;;;;;6.95;4.10;;;;;;;20.25;72.50;100056.78;10423939;28;20056;-58
2023/09/17 03:14:30;;;;;;;5.25;4.45;;;;;;;20.35;72.19;100063.22;10427626;28;20052;-58
2023/09/17 03:19:32;;;;;;;7.47;4.30;;;;;;;20.44;72.21;100074.56;10428151;28;20160;-58
2023/09/17 03:24:33;;;;;;;5.68;3.92;;;;;;;20.43;72.12;100074.81;10425244;28;20107;-58
2023/09/17 03:29:35;;;;;;;7.85;4.25;;;;;;;20.49;72.29;100065.63;10426982;28;20511;-60
2023/09/17 03:34:36;;;;;;;6.68;4.28;;;;;;;20.52;71.95;100062.41;10427152;28;20049;-58
2023/09/17 03:39:38;;;;;;;5.75;4.03;;;;;;;20.54;72.17;100061.06;10426605;28;20084;-59
2023/09/17 03:44:40;;;;;;;6.45;4.22;;;;;;;20.58;71.73;100055.94;10425443;28;20061;-58
2023/09/17 03:49:44;;;;;;;5.38;3.60;;;;;;;20.57;71.68;100049.63;10423483;28;20052;-58
2023/09/17 03:54:46;;;;;;;10.95;4.68;;;;;;;20.55;71.67;100057.25;10419298;28;20084;-59
2023/09/17 03:59:47;;;;;;;5.85;4.03;;;;;;;20.31;72.27;100055.78;10422583;28;20420;-57
2023/09/17 04:04:49;;;;;;;6.35;4.25;;;;;;;20.24;72.38;100044.19;10420946;28;20491;-59
2023/09/17 04:09:50;;;;;;;7.00;4.65;;;;;;;20.32;72.52;100051.97;10420406;28;20550;-58
2023/09/17 04:14:52;;;;;;;6.60;4.05;;;;;;;20.35;72.27;100048.75;10423158;28;20045;-57
2023/09/17 04:19:55;;;;;;;5.75;3.85;;;;;;;20.35;71.91;100055.03;10418895;28;20045;-57
2023/09/17 04:24:56;;;;;;;6.40;4.40;;;;;;;20.40;72.04;100062.50;10424011;28;20120;-57
2023/09/17 04:29:57;;;;;;;6.47;3.45;;;;;;;20.38;71.79;100057.28;10426246;28;20045;-57
2023/09/17 04:34:59;;;;;;;6.07;3.70;;;;;;;20.37;72.06;100063.78;10422633;28;20053;-59
2023/09/17 04:40:02;;;;;;;8.07;4.10;;;;;;;20.46;71.95;100064.22;10420852;28;20046;-59
2023/09/17 04:45:05;;;;;;;5.03;3.85;;;;;;;20.52;71.90;100065.97;10411070;28;20044;-59
2023/09/17 04:50:08;;;;;;;6.03;3.80;;;;;;;20.56;71.62;100056.19;10422654;28;20468;-60
2023/09/17 04:55:09;;;;;;;5.72;3.83;;;;;;;20.59;71.96;100074.00;10422296;28;20051;-60
2023/09/17 05:00:12;;;;;;;5.65;4.55;;;;;;;20.63;71.91;100074.34;10422910;28;20061;-59
2023/09/17 05:05:13;;;;;;;6.47;4.15;;;;;;;20.54;72.10;100080.19;10422497;28;20048;-64
2023/09/17 05:10:15;;;;;;;4.93;4.22;;;;;;;20.57;71.53;100078.84;10420095;28;20047;-65
2023/09/17 05:15:17;;;;;;;4.95;3.50;;;;;;;20.66;71.78;100082.88;10422884;28;20055;-63
2023/09/17 05:20:21;;;;;;;5.82;4.65;;;;;;;20.74;71.70;100082.44;10419213;28;20209;-63
2023/09/17 05:25:22;;;;;;;6.68;3.75;;;;;;;20.75;71.45;100089.56;10416611;28;20136;-64
2023/09/17 05:30:25;;;;;;;5.55;4.72;;;;;;;20.75;71.25;100089.56;10411239;28;20494;-65
2023/09/17 05:35:27;;;;;;;6.82;4.70;;;;;;;20.81;71.69;100087.72;10425239;28;20732;-66
2023/09/17 05:40:28;;;;;;;7.13;3.72;;;;;;;20.74;71.61;100100.75;10423500;28;20048;-65
2023/09/17 05:45:30;;;;;;;6.53;4.40;;;;;;;20.75;71.92;100100.50;10415840;28;20048;-59
2023/09/17 05:50:32;;;;;;;8.02;4.10;;;;;;;20.70;71.53;100107.78;10401195;28;20041;-58
2023/09/17 05:55:33;;;;;;;8.20;4.85;;;;;;;20.57;72.04;100111.63;10417279;28;20440;-58
2023/09/17 06:00:35;;;;;;;5.88;4.50;;;;;;;20.57;72.10;100108.91;10418883;28;20068;-59
2023/09/17 06:05:36;;;;;;;6.15;4.00;;;;;;;20.58;72.16;100121.50;10419434;28;20052;-57
2023/09/17 06:10:38;;;;;;;5.72;4.43;;;;;;;20.74;71.86;100123.41;10422628;28;20048;-59
2023/09/17 06:15:39;;;;;;;7.00;4.18;;;;;;;20.76;71.69;100131.38;10420874;28;20057;-58
2023/09/17 06:20:41;;;;;;;5.65;4.32;;;;;;;20.86;71.90;100134.25;10420636;28;20041;-59
2023/09/17 06:25:42;;;;;;;5.47;4.63;;;;;;;20.94;71.49;100141.22;10428067;28;20044;-59
2023/09/17 06:30:45;;;;;;;8.32;4.80;;;;;;;21.10;71.61;100134.88;10428005;28;20358;-58
2023/09/17 06:35:46;;;;;;;7.15;4.35;;;;;;;21.32;71.30;100147.78;10423931;28;20053;-59
2023/09/17 06:40:48;;;;;;;6.80;3.70;;;;;;;21.52;70.81;100142.59;10428583;28;20502;-59
2023/09/17 06:45:50;;;;;;;6.03;4.07;;;;;;;21.69;71.17;100142.53;10426796;28;20496;-59
2023/09/17 06:50:51;;;;;;;7.30;4.75;;;;;;;21.89;70.63;100146.63;10428295;28;20044;-64
2023/09/17 06:55:53;;;;;;;6.03;5.38;;;;;;;22.03;70.11;100133.34;10431941;28;20651;-64
2023/09/17 07:00:54;;;;;;;6.55;5.60;;;;;;;22.14;70.19;100146.91;10424049;28;20141;-65
2023/09/17 07:05:56;;;;;;;8.13;6.63;;;;;;;22.24;69.88;100148.94;10420143;28;20040;-63
2023/09/17 07:10:58;;;;;;;16.73;6.97;;;;;;;22.29;69.83;100139.94;10423909;28;20064;-65
2023/09/17 07:15:59;;;;;;;11.93;7.47;;;;;;;22.31;69.93;100140.50;10425079;28;20069;-65
2023/09/17 07:21:01;;;;;;;10.38;7.57;;;;;;;22.35;69.85;100145.22;10421373;28;20048;-64
2023/09/17 07:26:03;;;;;;;10.07;8.10;;;;;;;22.48;69.49;100135.75;10412745;28;20048;-65
2023/09/17 07:31:10;;;;;;;11.50;8.40;;;;;;;22.58;69.57;100144.06;10423488;28;20041;-64
2023/09/17 07:36:13;;;;;;;11.80;8.90;;;;;;;22.70;69.55;100148.53;10421478;28;20056;-64
2023/09/17 07:41:14;;;;;;;16.25;11.75;;;;;;;22.64;69.83;100142.19;10426803;28;20049;-63
2023/09/17 07:46:16;;;;;;;16.25;11.77;;;;;;;22.80;69.69;100154.09;10424175;28;20049;-64
2023/09/17 07:51:18;;;;;;;13.93;10.82;;;;;;;23.06;69.45;100149.66;10423064;28;20116;-60
2023/09/17 07:56:20;;;;;;;17.08;10.82;;;;;;;23.21;68.93;100153.59;10426873;28;20065;-64
2023/09/17 08:01:25;;;;;;;16.00;10.25;;;;;;;23.40;68.86;100146.59;10421103;28;20049;-63
2023/09/17 08:06:27;;;;;;;14.73;9.55;;;;;;;23.65;68.56;100151.34;10424061;28;20057;-63
2023/09/17 08:11:29;;;;;;;12.85;9.80;;;;;;;23.87;68.07;100156.69;10420807;28;20037;-64
2023/09/17 08:16:31;;;;;;;15.70;9.70;;;;;;;23.98;67.75;100159.47;10421144;28;20056;-63
2023/09/17 08:21:33;;;;;;;15.35;8.32;;;;;;;24.17;66.70;100155.13;10427018;28;20462;-65
2023/09/17 08:26:35;;;;;;;11.60;8.15;;;;;;;24.39;65.93;100154.91;10417003;28;20057;-64
2023/09/17 08:31:36;;;;;;;11.07;6.60;;;;;;;24.56;65.61;100154.66;10408165;28;20053;-65
2023/09/17 08:36:38;;;;;;;12.60;7.18;;;;;;;24.64;64.86;100156.03;10420904;28;20581;-61
2023/09/17 08:41:41;;;;;;;8.85;6.50;;;;;;;24.81;64.52;100155.78;10423654;28;20099;-64
2023/09/17 08:46:43;;;;;;;8.02;5.90;;;;;;;25.01;63.63;100160.44;10417469;28;20419;-64
2023/09/17 08:51:46;;;;;;;8.38;6.20;;;;;;;25.13;63.26;100159.03;10416369;28;20041;-62
2023/09/17 08:56:49;;;;;;;7.60;5.28;;;;;;;25.26;62.80;100160.41;10418769;28;20111;-64
2023/09/17 09:01:51;;;;;;;8.55;4.88;;;;;;;25.30;62.10;100161.50;10419358;28;20060;-65
2023/09/17 09:06:54;;;;;;;7.43;5.05;;;;;;;25.48;61.44;100159.25;10414032;28;20426;-63
2023/09/17 09:11:57;;;;;;;4.90;2.95;;;;;;;25.58;60.76;100159.22;10422477;28;20049;-59
2023/09/17 09:17:00;;;;;;;7.50;3.60;;;;;;;25.62;59.63;100146.53;10421285;28;20610;-60
2023/09/17 09:22:02;;;;;;;5.35;3.13;;;;;;;25.84;59.04;100148.91;10421839;28;20420;-60
2023/09/17 09:27:05;;;;;;;5.50;3.00;;;;;;;26.16;57.91;100149.59;10420060;28;20049;-60
2023/09/17 09:32:09;;;;;;;5.40;2.47;;;;;;;26.39;57.07;100153.59;10425068;28;20068;-59
2023/09/17 09:37:10;;;;;;;2.88;2.50;;;;;;;26.45;56.86;100150.50;10428262;28;20091;-59
2023/09/17 09:42:13;;;;;;;4.10;2.50;;;;;;;26.52;55.87;100151.03;10416643;28;20041;-58
2023/09/17 09:47:14;;;;;;;4.88;2.85;;;;;;;26.88;55.03;100142.47;10416358;28;20141;-59
2023/09/17 09:52:16;;;;;;;4.82;2.47;;;;;;;27.00;54.84;100133.00;10407248;28;20061;-59
2023/09/17 09:57:19;;;;;;;5.28;2.70;;;;;;;26.99;53.94;100131.34;10438988;28;20055;-60
2023/09/17 10:02:21;;;;;;;5.40;2.78;;;;;;;27.12;53.57;100121.56;10439386;28;20057;-57
2023/09/17 10:07:23;;;;;;;5.82;1.98;;;;;;;27.45;52.50;100134.47;10429474;28;20175;-59
2023/09/17 10:12:27;;;;;;;2.65;1.77;;;;;;;27.67;51.99;100131.16;10422989;28;20052;-60
2023/09/17 10:17:30;;;;;;;4.65;1.88;;;;;;;27.86;50.62;100122.91;10405465;28;20049;-60
2023/09/17 10:22:34;;;;;;;6.32;1.90;;;;;;;28.07;50.22;100123.44;10425991;28;20109;-60
2023/09/17 10:27:37;;;;;;;4.63;1.40;;;;;;;28.03;50.30;100114.09;10431080;28;20427;-62
2023/09/17 10:32:39;;;;;;;4.85;1.52;;;;;;;28.17;49.65;100116.13;10429145;28;20075;-59
2023/09/17 10:37:40;;;;;;;3.85;1.73;;;;;;;28.41;49.67;100110.50;10424122;28;20244;-62
2023/09/17 10:42:43;;;;;;;2.67;1.98;;;;;;;28.74;48.56;100100.28;10426787;28;20492;-64
2023/09/17 10:47:47;;;;;;;4.50;1.73;;;;;;;29.22;47.17;100107.44;10420422;28;20050;-62
2023/09/17 10:52:48;;;;;;;4.15;1.40;;;;;;;29.52;46.61;100103.22;10424297;28;20048;-60
2023/09/17 10:58:04;;;;;;;4.95;1.55;;;;;;;29.58;46.25;100095.63;10427547;28;20111;-63
2023/09/17 11:03:06;;;;;;;7.25;2.08;;;;;;;29.67;45.55;100096.56;10422067;28;20121;-61
2023/09/17 11:08:09;;;;;;;2.88;1.33;;;;;;;29.82;45.17;100095.44;10424310;28;20056;-62
2023/09/17 11:13:14;;;;;;;3.40;1.75;;;;;;;30.20;44.12;100086.78;10414761;28;20051;-63
2023/09/17 11:18:16;;;;;;;4.30;1.40;;;;;;;30.34;44.00;100079.25;10420197;28;20053;-61
2023/09/17 11:23:18;;;;;;;2.30;1.88;;;;;;;30.51;43.63;100080.50;10405586;28;20111;-64
2023/09/17 11:28:19;;;;;;;1.65;1.38;;;;;;;30.53;43.16;100079.06;10409862;28;20056;-63
2023/09/17 11:33:22;;;;;;;1.75;1.30;;;;;;;30.66;43.15;100065.41;10423868;28;20061;-61
2023/09/17 11:38:24;;;;;;;3.42;1.40;;;;;;;30.97;42.54;100071.00;10424924;28;20045;-62
2023/09/17 11:43:26;;;;;;;5.70;1.45;;;;;;;30.99;42.32;100061.22;10427630;28;20049;-59
2023/09/17 11:48:27;;;;;;;3.47;1.25;;;;;;;31.25;41.51;100052.16;10418733;28;20045;-61
2023/09/17 11:53:29;;;;;;;3.53;1.60;;;;;;;31.23;42.40;100048.88;10423514;28;20045;-62
2023/09/17 11:58:33;;;;;;;3.05;1.48;;;;;;;31.40;41.45;100048.94;10408846;28;20216;-63
2023/09/17 12:03:36;;;;;;;1.73;1.10;;;;;;;31.50;41.15;100039.50;10423616;28;20136;-64
2023/09/17 12:08:37;;;;;;;1.42;0.90;;;;;;;31.61;40.69;100045.53;10427974;28;20056;-63
2023/09/17 12:13:39;;;;;;;7.15;1.90;;;;;;;31.63;40.50;100043.25;10423528;28;20147;-62
2023/09/17 12:18:41;;;;;;;3.47;1.20;;;;;;;31.82;40.18;100037.41;10420641;28;20853;-64
2023/09/17 12:28:55;;;;;;;6.10;1.23;;;;;;;31.79;39.78;100046.38;10420017;28;20524;-62
2023/09/17 12:33:57;;;;;;;4.53;1.50;;;;;;;32.11;39.51;100045.13;10428270;28;20148;-64
2023/09/17 12:39:00;;;;;;;5.40;0.85;;;;;;;32.16;39.47;100036.59;10422367;28;20671;-64
2023/09/17 12:44:01;;;;;;;3.63;1.60;;;;;;;32.37;38.98;100050.63;10419372;28;20049;-58
2023/09/17 12:49:03;;;;;;;2.80;1.17;;;;;;;32.44;39.31;100050.13;10423562;28;20049;-58
2023/09/17 12:54:05;;;;;;;2.53;1.40;;;;;;;32.25;39.44;100046.88;10425733;28;20055;-56
2023/09/17 12:59:07;;;;;;;5.57;1.77;;;;;;;32.33;39.47;100044.09;10424585;28;20041;-57
2023/09/17 13:04:08;;;;;;;3.53;1.75;;;;;;;32.36;38.75;100042.63;10420148;28;20098;-56
2023/09/17 13:09:12;;;;;;;6.38;1.63;;;;;;;32.50;38.49;100042.41;10419502;28;20077;-58
2023/09/17 13:14:13;;;;;;;1.92;1.27;;;;;;;32.45;38.24;100039.84;10421736;28;20041;-56
2023/09/17 13:19:16;;;;;;;5.85;1.42;;;;;;;32.26;39.07;100037.41;10424260;28;20081;-58
2023/09/17 13:24:18;;;;;;;4.60;1.40;;;;;;;32.57;38.32;100039.97;10423700;28;20049;-57
2023/09/17 13:29:19;;;;;;;5.07;1.83;;;;;;;32.53;38.20;100042.56;10421262;28;20404;-57
2023/09/17 13:34:22;;;;;;;8.10;1.48;;;;;;;32.56;38.02;100016.88;10431494;28;20050;-56
2023/09/17 13:39:24;;;;;;;5.55;1.23;;;;;;;32.48;38.03;100031.59;10426715;28;20068;-56
2023/09/17 13:44:25;;;;;;;3.08;1.45;;;;;;;32.14;38.71;100030.53;10430185;28;20439;-59
2023/09/17 13:49:27;;;;;;;3.80;1.45;;;;;;;32.10;38.23;100014.84;10431249;28;20056;-59
2023/09/17 13:54:28;;;;;;;2.83;1.70;;;;;;;32.41;37.84;100017.41;10433408;28;20136;-69
2023/09/17 13:59:30;;;;;;;3.95;1.20;;;;;;;34.79;34.46;99991.13;10427476;28;20052;-70
2023/09/17 14:04:32;;;;;;;4.75;1.60;;;;;;;36.52;31.81;99987.50;10431948;28;20160;-65
2023/09/17 14:09:34;;;;;;;5.47;1.60;;;;;;;37.37;30.58;99973.16;10429851;28;20063;-71
2023/09/17 14:14:36;;;;;;;15.65;5.03;;;;;;;38.99;27.86;99977.06;10428932;28;20045;-67
2023/09/17 14:19:37;;;;;;;4.10;1.30;;;;;;;41.30;24.92;99966.28;10426568;28;20048;-63
2023/09/17 14:24:38;;;;;;;8.07;1.23;;;;;;;42.62;23.42;99956.59;10417939;28;20053;-64
2023/09/17 14:29:40;;;;;;;8.70;3.67;;;;;;;42.04;24.42;99958.53;10439147;28;20048;-65
2023/09/17 14:34:42;;;;;;;9.65;4.47;;;;;;;41.18;25.69;99951.31;10444225;28;20057;-61
2023/09/17 14:39:44;;;;;;;5.93;1.67;;;;;;;40.54;26.07;99945.97;10444281;28;20049;-65
2023/09/17 14:44:45;;;;;;;4.85;1.73;;;;;;;40.52;25.86;99945.56;10424586;28;20061;-62
2023/09/17 14:49:47;;;;;;;2.63;1.20;;;;;;;40.00;26.27;99945.44;10444244;28;20046;-64
2023/09/17 14:54:49;;;;;;;2.97;0.95;;;;;;;39.43;27.07;99928.69;10436804;28;20065;-61
2023/09/17 14:59:55;;;;;;;3.00;0.90;;;;;;;38.78;27.53;99920.50;10445619;28;20038;-66
2023/09/17 15:04:57;;;;;;;2.55;0.98;;;;;;;37.96;28.34;99909.44;10432170;28;20046;-60
2023/09/17 15:09:58;;;;;;;3.22;1.25;;;;;;;37.04;28.96;99909.13;10437655;28;20041;-60
2023/09/17 15:15:00;;;;;;;3.28;0.93;;;;;;;35.98;30.12;99915.25;10414343;28;20137;-60
2023/09/17 15:20:02;;;;;;;4.03;1.20;;;;;;;35.52;30.86;99907.19;10431903;28;20053;-61
2023/09/17 15:25:04;;;;;;;3.47;1.38;;;;;;;35.45;30.93;99906.16;10400651;28;20045;-59
2023/09/17 15:30:07;;;;;;;4.55;1.40;;;;;;;35.53;31.86;99905.22;10414416;28;20052;-59
2023/09/17 15:35:14;;;;;;;3.35;1.02;;;;;;;35.80;31.47;99916.75;10405506;28;20072;-59
2023/09/17 15:40:20;;;;;;;3.33;0.90;;;;;;;35.64;32.11;99913.91;10422630;28;20049;-59
2023/09/17 15:45:21;;;;;;;7.93;1.50;;;;;;;35.20;32.95;99913.81;10404074;28;20057;-59
2023/09/17 15:50:23;;;;;;;6.15;1.30;;;;;;;35.20;32.76;99908.25;10415695;28;20144;-62
2023/09/17 15:55:25;;;;;;;3.47;1.73;;;;;;;36.74;30.68;99904.03;10417979;28;20060;-61
2023/09/17 16:00:26;;;;;;;7.85;1.05;;;;;;;37.32;30.16;99908.94;10425551;28;20049;-63
2023/09/17 16:05:28;;;;;;;10.25;1.85;;;;;;;36.98;30.17;99910.59;10406467;28;20049;-63
2023/09/17 16:10:31;;;;;;;14.65;1.77;;;;;;;36.35;31.11;99906.66;10421254;28;20622;-64
2023/09/17 16:15:33;;;;;;;7.05;1.40;;;;;;;35.78;32.12;99905.13;10390848;28;20443;-61
2023/09/17 16:20:35;;;;;;;5.88;1.35;;;;;;;35.31;32.72;99898.16;10409900;28;20160;-60
2023/09/17 16:25:37;;;;;;;4.70;1.20;;;;;;;34.94;33.42;99892.66;10413289;28;20075;-60
2023/09/17 16:30:38;;;;;;;7.53;2.88;;;;;;;34.63;34.22;99896.84;10408192;28;20049;-64
2023/09/17 16:35:40;;;;;;;4.20;1.60;;;;;;;34.20;34.35;99884.25;10401422;28;20053;-59
2023/09/17 16:40:43;;;;;;;8.10;2.10;;;;;;;33.68;35.09;99893.19;10404597;28;20047;-62
2023/09/17 16:45:46;;;;;;;3.07;1.50;;;;;;;33.24;36.58;99892.72;10405878;28;20079;-62
2023/09/17 16:50:48;;;;;;;2.83;1.20;;;;;;;32.73;36.74;99882.38;10427505;28;20060;-63
2023/09/17 16:55:50;;;;;;;5.43;1.10;;;;;;;32.29;37.76;99873.41;10406275;28;20070;-60
2023/09/17 17:00:52;;;;;;;3.92;1.20;;;;;;;31.89;37.95;99878.41;10424862;28;20044;-62
2023/09/17 17:05:53;;;;;;;4.80;2.42;;;;;;;31.52;38.56;99878.00;10414628;28;20053;-61
2023/09/17 17:10:56;;;;;;;3.25;1.88;;;;;;;31.19;39.35;99879.28;10401288;28;20099;-62
2023/09/17 17:15:58;;;;;;;3.38;1.50;;;;;;;30.84;40.06;99865.31;10421255;28;20041;-62
2023/09/17 17:21:02;;;;;;;4.18;1.40;;;;;;;30.52;40.58;99857.44;10419252;28;20068;-60
2023/09/17 17:26:05;;;;;;;4.72;1.73;;;;;;;30.22;41.29;99857.94;10421393;28;20045;-61
2023/09/17 17:31:07;;;;;;;4.50;2.78;;;;;;;29.87;42.28;99854.19;10421074;28;20395;-62
2023/09/17 17:36:09;;;;;;;8.35;2.00;;;;;;;29.60;42.82;99855.97;10419236;28;20139;-62
2023/09/17 17:41:10;;;;;;;7.30;2.17;;;;;;;29.36;43.78;99849.91;10420428;28;20056;-60
2023/09/17 17:46:12;;;;;;;6.82;2.80;;;;;;;29.07;44.61;99854.72;10421195;28;20498;-66
2023/09/17 17:51:13;;;;;;;5.05;2.17;;;;;;;28.65;45.24;99851.22;10410651;28;20048;-59
2023/09/17 17:56:15;;;;;;;5.68;2.33;;;;;;;28.50;45.99;99854.25;10424330;28;20671;-58
2023/09/17 18:01:17;;;;;;;7.85;3.33;;;;;;;28.33;46.64;99843.81;10427184;28;20507;-57
2023/09/17 18:06:20;;;;;;;7.32;4.75;;;;;;;28.12;47.29;99840.66;10420388;28;20148;-58
2023/09/17 18:11:21;;;;;;;12.63;5.78;;;;;;;27.78;48.40;99843.72;10421498;28;20040;-59
2023/09/17 18:16:23;;;;;;;12.57;4.55;;;;;;;27.57;48.52;99849.59;10458965;28;20041;-59
2023/09/17 18:21:25;;;;;;;5.10;3.05;;;;;;;27.17;49.72;99851.84;10443817;28;20114;-60
2023/09/17 18:26:26;;;;;;;11.07;3.63;;;;;;;27.11;49.79;99853.03;10465187;28;20061;-59
2023/09/17 18:31:28;;;;;;;10.00;3.83;;;;;;;26.85;50.66;99858.13;10485800;28;20052;-59
2023/09/17 18:36:29;;;;;;;7.18;2.35;;;;;;;26.65;51.50;99857.25;10456807;28;20235;-60
2023/09/17 18:41:31;;;;;;;8.18;2.83;;;;;;;26.46;52.20;99859.13;10432115;28;20072;-59
2023/09/17 18:46:33;;;;;;;8.63;2.90;;;;;;;26.35;52.65;99847.41;10457974;28;20041;-60
2023/09/17 18:51:35;;;;;;;9.15;3.17;;;;;;;26.23;53.22;99855.28;10461992;28;20068;-60
2023/09/17 18:56:37;;;;;;;6.55;2.90;;;;;;;26.10;53.66;99862.28;10469750;28;20556;-59
2023/09/17 19:01:39;;;;;;;9.77;4.00;;;;;;;25.84;54.61;99857.00;10444150;28;20499;-59
2023/09/17 19:06:41;;;;;;;7.60;3.03;;;;;;;25.66;54.87;99852.22;10462278;28;20053;-61
2023/09/17 19:11:42;;;;;;;7.70;2.78;;;;;;;25.50;55.39;99837.78;10450005;28;20076;-59
2023/09/17 19:16:44;;;;;;;5.15;3.05;;;;;;;25.40;55.68;99832.34;10454650;28;20057;-59
2023/09/17 19:21:45;;;;;;;5.45;2.78;;;;;;;25.39;56.09;99842.50;10466954;28;20049;-58
2023/09/17 19:26:47;;;;;;;7.78;3.45;;;;;;;25.22;56.59;99831.13;10449533;28;20049;-59
2023/09/17 19:31:48;;;;;;;7.78;2.90;;;;;;;24.99;57.25;99838.91;10449720;28;20076;-59
2023/09/17 19:36:50;;;;;;;5.57;2.95;;;;;;;24.90;57.15;99832.38;10472624;28;20055;-59
2023/09/17 19:41:51;;;;;;;8.75;2.92;;;;;;;24.85;57.93;99821.41;10469501;28;20576;-58
2023/09/17 19:46:53;;;;;;;8.48;3.55;;;;;;;24.85;57.52;99818.66;10455171;28;20053;-59
2023/09/17 19:51:58;;;;;;;5.43;3.20;;;;;;;24.80;57.84;99821.44;10467535;28;20040;-60
2023/09/17 19:57:00;;;;;;;3.55;2.80;;;;;;;24.69;57.90;99827.00;10452900;28;20128;-60
2023/09/17 20:02:01;;;;;;;10.57;3.50;;;;;;;24.62;58.13;99820.16;10448090;28;20114;-59
2023/09/17 20:07:03;;;;;;;6.22;3.17;;;;;;;24.58;58.72;99813.59;10471148;28;20071;-59
2023/09/17 20:12:05;;;;;;;6.55;3.28;;;;;;;24.53;58.78;99807.00;10438339;28;20063;-59
2023/09/17 20:17:07;;;;;;;10.93;3.15;;;;;;;24.50;58.57;99820.44;10443688;28;20051;-59
2023/09/17 20:22:08;;;;;;;9.27;3.47;;;;;;;24.41;59.21;99813.88;10464436;28;20057;-60
2023/09/17 20:27:10;;;;;;;6.18;3.20;;;;;;;24.43;59.00;99796.03;10432969;28;20049;-59
2023/09/17 20:32:11;;;;;;;13.20;4.20;;;;;;;24.41;58.87;99808.41;10428927;28;20067;-60
2023/09/17 20:37:12;;;;;;;9.98;3.83;;;;;;;24.37;59.04;99782.59;10425776;28;20128;-59
2023/09/17 20:42:14;;;;;;;8.52;3.35;;;;;;;24.33;59.21;99776.84;10421106;28;20484;-60
2023/09/17 20:47:15;;;;;;;9.38;3.08;;;;;;;24.24;59.43;99784.03;10426943;28;20439;-60
2023/09/17 20:52:19;;;;;;;8.77;3.45;;;;;;;24.05;60.10;99792.91;10435322;28;20144;-60
2023/09/17 20:57:22;;;;;;;8.20;2.67;;;;;;;23.95;60.23;99784.66;10431041;28;20071;-59
2023/09/17 21:02:24;;;;;;;10.18;3.63;;;;;;;23.88;60.22;99782.22;10425558;28;20055;-61
2023/09/17 21:07:27;;;;;;;5.57;2.88;;;;;;;23.67;60.77;99772.34;10422261;28;20049;-59
2023/09/17 21:12:28;;;;;;;8.38;3.35;;;;;;;23.48;61.54;99761.13;10406441;28;20049;-58
2023/09/17 21:17:30;;;;;;;10.75;3.10;;;;;;;23.53;61.38;99770.16;10435121;28;20135;-60
2023/09/17 21:22:32;;;;;;;8.27;3.22;;;;;;;23.59;61.12;99767.44;10428323;28;20110;-61
2023/09/17 21:27:34;;;;;;;8.07;3.00;;;;;;;23.57;61.35;99770.44;10430462;28;20055;-59
2023/09/17 21:32:35;;;;;;;8.75;3.13;;;;;;;23.43;61.53;99753.72;10432536;28;20061;-59
2023/09/17 21:37:37;;;;;;;7.68;3.25;;;;;;;23.38;61.65;99750.16;10426059;28;20068;-59
2023/09/17 21:42:39;;;;;;;7.75;2.90;;;;;;;23.37;62.00;99730.16;10425434;28;20048;-60
2023/09/17 21:47:40;;;;;;;7.72;3.03;;;;;;;23.40;61.76;99732.34;10426141;28;20053;-60
2023/09/17 21:52:42;;;;;;;9.52;3.20;;;;;;;23.39;61.49;99733.44;10430338;28;20487;-59
2023/09/17 21:57:43;;;;;;;5.35;2.72;;;;;;;23.32;61.70;99728.25;10436828;28;20500;-60
2023/09/17 22:02:45;;;;;;;6.03;3.05;;;;;;;23.28;61.86;99707.94;10429144;28;20052;-59
2023/09/17 22:07:47;;;;;;;6.28;3.47;;;;;;;23.24;62.24;99700.53;10428452;28;20053;-60
2023/09/17 22:12:48;;;;;;;6.80;2.60;;;;;;;23.01;62.65;99699.97;10427456;28;20049;-57
2023/09/17 22:17:50;;;;;;;5.60;3.08;;;;;;;22.81;63.28;99714.50;10426329;28;20052;-57
2023/09/17 22:22:54;;;;;;;9.63;3.95;;;;;;;22.77;63.65;99707.94;10430789;28;20049;-58
2023/09/17 22:27:56;;;;;;;11.98;3.10;;;;;;;22.89;63.14;99710.41;10423959;28;20064;-58
2023/09/17 22:32:57;;;;;;;6.47;3.08;;;;;;;22.86;63.17;99711.75;10430587;28;20041;-57
2023/09/17 22:37:59;;;;;;;9.07;3.20;;;;;;;22.87;63.08;99709.84;10426815;28;20053;-57
2023/09/17 22:43:00;;;;;;;5.32;3.40;;;;;;;22.82;63.18;99704.34;10425970;28;20434;-57
2023/09/17 22:48:02;;;;;;;9.68;3.30;;;;;;;22.71;63.30;99687.06;10424050;28;20053;-57
2023/09/17 22:53:03;;;;;;;5.93;3.20;;;;;;;22.65;63.57;99680.78;10425099;28;20461;-58
2023/09/17 22:58:05;;;;;;;10.73;3.50;;;;;;;22.62;63.47;99673.09;10422449;28;20504;-58
2023/09/17 23:03:06;;;;;;;10.30;4.03;;;;;;;22.54;63.74;99666.25;10423452;28;20049;-58
2023/09/17 23:08:08;;;;;;;5.68;3.30;;;;;;;22.43;64.09;99664.56;10423742;28;20051;-58
2023/09/17 23:13:10;;;;;;;9.77;3.15;;;;;;;22.35;64.09;99671.44;10427996;28;20075;-57
2023/09/17 23:18:14;;;;;;;13.30;3.25;;;;;;;22.33;64.12;99654.44;10427843;28;20045;-58